sensor_id;sensor_type;location;lat;lon;timestamp;temperature;humidity
17687;DHT22;8962;52.538;13.266;2023-11-19T00:01:49;5.10;55.20
17687;DHT22;8962;52.538;13.266;2023-11-19T00:04:16;5.10;56.10
17687;DHT22;8962;52.538;13.266;2023-11-19T00:06:45;5.10;55.10
17687;DHT22;8962;52.538;13.266;2023-11-19T00:09:12;5.10;56.30
17687;DHT22;8962;52.538;13.266;2023-11-19T00:11:39;5.10;51.80
17687;DHT22;8962;52.538;13.266;2023-11-19T00:14:06;5.10;51.30
17687;DHT22;8962;52.538;13.266;2023-11-19T00:16:34;5.10;50.00
17687;DHT22;8962;52.538;13.266;2023-11-19T00:19:02;5.20;51.60
17687;DHT22;8962;52.538;13.266;2023-11-19T00:21:29;5.10;44.70
17687;DHT22;8962;52.538;13.266;2023-11-19T00:24:00;5.20;47.70
17687;DHT22;8962;52.538;13.266;2023-11-19T00:26:28;5.20;41.00
17687;DHT22;8962;52.538;13.266;2023-11-19T00:28:56;5.20;41.90
17687;DHT22;8962;52.538;13.266;2023-11-19T00:31:23;5.20;44.00
17687;DHT22;8962;52.538;13.266;2023-11-19T00:33:53;5.20;39.60
17687;DHT22;8962;52.538;13.266;2023-11-19T00:36:20;5.20;33.20
17687;DHT22;8962;52.538;13.266;2023-11-19T00:38:50;5.20;30.00
17687;DHT22;8962;52.538;13.266;2023-11-19T00:41:19;5.20;30.70
17687;DHT22;8962;52.538;13.266;2023-11-19T00:43:47;5.30;29.50
17687;DHT22;8962;52.538;13.266;2023-11-19T00:46:15;5.30;25.90
17687;DHT22;8962;52.538;13.266;2023-11-19T00:48:42;5.30;27.00
17687;DHT22;8962;52.538;13.266;2023-11-19T00:51:11;5.30;27.20
17687;DHT22;8962;52.538;13.266;2023-11-19T00:53:39;5.30;25.80
17687;DHT22;8962;52.538;13.266;2023-11-19T00:56:06;5.40;25.20
17687;DHT22;8962;52.538;13.266;2023-11-19T00:58:35;5.40;20.80
17687;DHT22;8962;52.538;13.266;2023-11-19T01:01:03;5.40;22.10
17687;DHT22;8962;52.538;13.266;2023-11-19T01:03:31;5.40;18.90
17687;DHT22;8962;52.538;13.266;2023-11-19T01:05:58;5.50;15.20
17687;DHT22;8962;52.538;13.266;2023-11-19T01:08:28;5.50;4.40
17687;DHT22;8962;52.538;13.266;2023-11-19T01:10:55;5.50;1.00
17687;DHT22;8962;52.538;13.266;2023-11-19T01:13:22;5.50;1.70
17687;DHT22;8962;52.538;13.266;2023-11-19T01:15:51;5.50;1.00
17687;DHT22;8962;52.538;13.266;2023-11-19T01:18:18;5.50;1.00
17687;DHT22;8962;52.538;13.266;2023-11-19T01:20:46;5.50;1.00
17687;DHT22;8962;52.538;13.266;2023-11-19T01:23:13;5.50;1.00
17687;DHT22;8962;52.538;13.266;2023-11-19T01:25:40;5.50;1.00
17687;DHT22;8962;52.538;13.266;2023-11-19T01:28:07;5.50;1.00
17687;DHT22;8962;52.538;13.266;2023-11-19T01:30:34;5.50;1.00
17687;DHT22;8962;52.538;13.266;2023-11-19T01:33:02;5.50;1.00
17687;DHT22;8962;52.538;13.266;2023-11-19T01:35:30;5.50;1.00
17687;DHT22;8962;52.538;13.266;2023-11-19T01:37:57;5.50;1.00
17687;DHT22;8962;52.538;13.266;2023-11-19T01:40:24;5.50;1.00
17687;DHT22;8962;52.538;13.266;2023-11-19T01:42:51;5.50;1.00
17687;DHT22;8962;52.538;13.266;2023-11-19T01:45:27;5.50;1.00
17687;DHT22;8962;52.538;13.266;2023-11-19T01:47:56;5.50;1.00
17687;DHT22;8962;52.538;13.266;2023-11-19T01:50:25;5.50;1.00
17687;DHT22;8962;52.538;13.266;2023-11-19T01:52:53;5.50;1.00
17687;DHT22;8962;52.538;13.266;2023-11-19T01:55:20;5.50;1.00
17687;DHT22;8962;52.538;13.266;2023-11-19T01:57:48;5.50;1.00
17687;DHT22;8962;52.538;13.266;2023-11-19T02:00:16;5.50;1.00
17687;DHT22;8962;52.538;13.266;2023-11-19T02:02:46;5.50;4.30
17687;DHT22;8962;52.538;13.266;2023-11-19T02:05:14;5.50;11.20
17687;DHT22;8962;52.538;13.266;2023-11-19T02:07:43;5.40;16.00
17687;DHT22;8962;52.538;13.266;2023-11-19T02:10:12;5.40;18.30
17687;DHT22;8962;52.538;13.266;2023-11-19T02:12:40;5.30;21.20
17687;DHT22;8962;52.538;13.266;2023-11-19T02:15:10;5.30;24.60
17687;DHT22;8962;52.538;13.266;2023-11-19T02:17:37;5.30;26.70
17687;DHT22;8962;52.538;13.266;2023-11-19T02:20:05;5.30;26.70
17687;DHT22;8962;52.538;13.266;2023-11-19T02:22:34;5.30;31.20
17687;DHT22;8962;52.538;13.266;2023-11-19T02:25:06;5.30;32.40
17687;DHT22;8962;52.538;13.266;2023-11-19T02:27:52;5.30;33.90
17687;DHT22;8962;52.538;13.266;2023-11-19T02:30:23;5.30;32.60
17687;DHT22;8962;52.538;13.266;2023-11-19T02:32:52;5.30;32.30
17687;DHT22;8962;52.538;13.266;2023-11-19T02:35:20;5.40;30.20
17687;DHT22;8962;52.538;13.266;2023-11-19T02:37:48;5.40;28.90
17687;DHT22;8962;52.538;13.266;2023-11-19T02:40:16;5.40;28.50
17687;DHT22;8962;52.538;13.266;2023-11-19T02:42:43;5.40;28.60
17687;DHT22;8962;52.538;13.266;2023-11-19T02:45:11;5.50;26.90
17687;DHT22;8962;52.538;13.266;2023-11-19T02:47:40;5.50;28.10
17687;DHT22;8962;52.538;13.266;2023-11-19T02:50:09;5.50;26.90
17687;DHT22;8962;52.538;13.266;2023-11-19T02:52:40;5.50;28.20
17687;DHT22;8962;52.538;13.266;2023-11-19T02:55:08;5.50;29.10
17687;DHT22;8962;52.538;13.266;2023-11-19T02:57:38;5.60;24.80
17687;DHT22;8962;52.538;13.266;2023-11-19T03:00:15;5.60;23.20
17687;DHT22;8962;52.538;13.266;2023-11-19T03:02:43;5.60;21.40
17687;DHT22;8962;52.538;13.266;2023-11-19T03:05:12;5.60;23.40
17687;DHT22;8962;52.538;13.266;2023-11-19T03:07:41;5.60;18.10
17687;DHT22;8962;52.538;13.266;2023-11-19T03:10:09;5.60;21.20
17687;DHT22;8962;52.538;13.266;2023-11-19T03:12:39;5.60;21.10
17687;DHT22;8962;52.538;13.266;2023-11-19T03:15:07;5.70;16.90
17687;DHT22;8962;52.538;13.266;2023-11-19T03:17:38;5.60;19.50
17687;DHT22;8962;52.538;13.266;2023-11-19T03:20:07;5.60;22.40
17687;DHT22;8962;52.538;13.266;2023-11-19T03:22:36;5.60;24.80
17687;DHT22;8962;52.538;13.266;2023-11-19T03:25:04;5.60;27.00
17687;DHT22;8962;52.538;13.266;2023-11-19T03:27:34;5.60;36.10
17687;DHT22;8962;52.538;13.266;2023-11-19T03:30:01;5.60;51.40
17687;DHT22;8962;52.538;13.266;2023-11-19T03:32:30;5.50;66.70
17687;DHT22;8962;52.538;13.266;2023-11-19T03:34:59;5.50;83.40
17687;DHT22;8962;52.538;13.266;2023-11-19T03:37:27;5.40;95.80
17687;DHT22;8962;52.538;13.266;2023-11-19T03:39:54;5.30;99.90
17687;DHT22;8962;52.538;13.266;2023-11-19T03:42:25;5.30;99.90
17687;DHT22;8962;52.538;13.266;2023-11-19T03:44:52;5.30;99.90
17687;DHT22;8962;52.538;13.266;2023-11-19T03:47:19;5.20;99.90
17687;DHT22;8962;52.538;13.266;2023-11-19T03:49:48;5.20;99.90
17687;DHT22;8962;52.538;13.266;2023-11-19T03:52:17;5.20;99.90
17687;DHT22;8962;52.538;13.266;2023-11-19T03:54:45;5.20;99.90
17687;DHT22;8962;52.538;13.266;2023-11-19T03:57:12;5.20;99.90
17687;DHT22;8962;52.538;13.266;2023-11-19T03:59:39;5.10;99.90
17687;DHT22;8962;52.538;13.266;2023-11-19T04:02:06;5.10;99.90
17687;DHT22;8962;52.538;13.266;2023-11-19T04:04:33;5.10;99.90
17687;DHT22;8962;52.538;13.266;2023-11-19T04:07:00;5.10;99.90
17687;DHT22;8962;52.538;13.266;2023-11-19T04:09:30;5.10;99.90
17687;DHT22;8962;52.538;13.266;2023-11-19T04:11:58;5.10;99.90
17687;DHT22;8962;52.538;13.266;2023-11-19T04:14:26;5.10;99.90
17687;DHT22;8962;52.538;13.266;2023-11-19T04:16:53;5.10;99.90
17687;DHT22;8962;52.538;13.266;2023-11-19T04:19:20;5.10;99.90
17687;DHT22;8962;52.538;13.266;2023-11-19T04:21:47;5.10;99.90
17687;DHT22;8962;52.538;13.266;2023-11-19T04:24:14;5.10;99.90
17687;DHT22;8962;52.538;13.266;2023-11-19T04:26:44;5.10;99.90
17687;DHT22;8962;52.538;13.266;2023-11-19T04:29:13;5.10;99.90
17687;DHT22;8962;52.538;13.266;2023-11-19T04:31:40;5.10;99.90
17687;DHT22;8962;52.538;13.266;2023-11-19T04:34:08;5.10;99.90
17687;DHT22;8962;52.538;13.266;2023-11-19T04:36:35;5.10;99.90
17687;DHT22;8962;52.538;13.266;2023-11-19T04:39:03;5.10;99.90
17687;DHT22;8962;52.538;13.266;2023-11-19T04:41:34;5.10;99.90
17687;DHT22;8962;52.538;13.266;2023-11-19T04:44:02;5.10;99.90
17687;DHT22;8962;52.538;13.266;2023-11-19T04:46:29;5.00;99.90
17687;DHT22;8962;52.538;13.266;2023-11-19T04:48:56;5.10;99.90
17687;DHT22;8962;52.538;13.266;2023-11-19T04:51:24;5.10;99.90
17687;DHT22;8962;52.538;13.266;2023-11-19T04:53:51;5.10;99.90
17687;DHT22;8962;52.538;13.266;2023-11-19T04:56:19;5.10;99.90
17687;DHT22;8962;52.538;13.266;2023-11-19T04:58:48;5.10;99.90
17687;DHT22;8962;52.538;13.266;2023-11-19T05:01:17;5.10;99.90
17687;DHT22;8962;52.538;13.266;2023-11-19T05:03:44;5.10;99.90
17687;DHT22;8962;52.538;13.266;2023-11-19T05:06:11;5.10;99.90
17687;DHT22;8962;52.538;13.266;2023-11-19T05:08:38;5.10;99.90
17687;DHT22;8962;52.538;13.266;2023-11-19T05:11:05;5.10;99.90
17687;DHT22;8962;52.538;13.266;2023-11-19T05:13:32;5.10;99.90
17687;DHT22;8962;52.538;13.266;2023-11-19T05:16:00;5.10;99.90
17687;DHT22;8962;52.538;13.266;2023-11-19T05:18:28;5.10;99.90
17687;DHT22;8962;52.538;13.266;2023-11-19T05:20:55;5.10;99.90
17687;DHT22;8962;52.538;13.266;2023-11-19T05:23:22;5.10;99.90
17687;DHT22;8962;52.538;13.266;2023-11-19T05:25:49;5.10;99.90
17687;DHT22;8962;52.538;13.266;2023-11-19T05:28:16;5.10;99.90
17687;DHT22;8962;52.538;13.266;2023-11-19T05:30:43;5.10;99.90
17687;DHT22;8962;52.538;13.266;2023-11-19T05:33:10;5.10;99.90
17687;DHT22;8962;52.538;13.266;2023-11-19T05:35:39;5.10;99.90
17687;DHT22;8962;52.538;13.266;2023-11-19T05:38:06;5.10;99.90
17687;DHT22;8962;52.538;13.266;2023-11-19T05:40:33;5.10;99.90
17687;DHT22;8962;52.538;13.266;2023-11-19T05:43:00;5.20;99.90
17687;DHT22;8962;52.538;13.266;2023-11-19T05:45:27;5.20;99.90
17687;DHT22;8962;52.538;13.266;2023-11-19T05:47:54;5.20;99.90
17687;DHT22;8962;52.538;13.266;2023-11-19T05:50:21;5.20;99.90
17687;DHT22;8962;52.538;13.266;2023-11-19T05:52:50;5.20;99.90
17687;DHT22;8962;52.538;13.266;2023-11-19T05:55:18;5.20;99.90
17687;DHT22;8962;52.538;13.266;2023-11-19T05:57:45;5.30;99.90
17687;DHT22;8962;52.538;13.266;2023-11-19T06:00:13;5.20;99.90
17687;DHT22;8962;52.538;13.266;2023-11-19T06:02:41;5.30;99.90
17687;DHT22;8962;52.538;13.266;2023-11-19T06:05:08;5.30;99.90
17687;DHT22;8962;52.538;13.266;2023-11-19T06:07:35;5.30;99.90
17687;DHT22;8962;52.538;13.266;2023-11-19T06:10:06;5.30;99.90
17687;DHT22;8962;52.538;13.266;2023-11-19T06:12:35;5.30;99.90
17687;DHT22;8962;52.538;13.266;2023-11-19T06:15:05;5.30;99.90
17687;DHT22;8962;52.538;13.266;2023-11-19T06:17:34;5.30;99.90
17687;DHT22;8962;52.538;13.266;2023-11-19T06:20:01;5.30;99.90
17687;DHT22;8962;52.538;13.266;2023-11-19T06:22:29;5.30;99.90
17687;DHT22;8962;52.538;13.266;2023-11-19T06:24:56;5.30;99.90
17687;DHT22;8962;52.538;13.266;2023-11-19T06:27:25;5.30;99.90
17687;DHT22;8962;52.538;13.266;2023-11-19T06:29:53;5.40;99.90
17687;DHT22;8962;52.538;13.266;2023-11-19T06:32:20;5.40;99.90
17687;DHT22;8962;52.538;13.266;2023-11-19T06:34:47;5.40;99.90
17687;DHT22;8962;52.538;13.266;2023-11-19T06:37:14;5.40;99.90
17687;DHT22;8962;52.538;13.266;2023-11-19T06:39:41;5.40;99.90
17687;DHT22;8962;52.538;13.266;2023-11-19T06:42:08;5.40;99.90
17687;DHT22;8962;52.538;13.266;2023-11-19T06:44:37;5.40;99.90
17687;DHT22;8962;52.538;13.266;2023-11-19T06:47:04;5.50;99.90
17687;DHT22;8962;52.538;13.266;2023-11-19T06:49:32;5.50;99.90
17687;DHT22;8962;52.538;13.266;2023-11-19T06:51:59;5.50;99.90
17687;DHT22;8962;52.538;13.266;2023-11-19T06:54:26;5.50;99.90
17687;DHT22;8962;52.538;13.266;2023-11-19T06:56:53;5.50;99.90
17687;DHT22;8962;52.538;13.266;2023-11-19T06:59:20;5.50;99.90
17687;DHT22;8962;52.538;13.266;2023-11-19T07:01:49;5.60;99.90
17687;DHT22;8962;52.538;13.266;2023-11-19T07:04:16;5.60;99.90
17687;DHT22;8962;52.538;13.266;2023-11-19T07:06:43;5.60;99.90
17687;DHT22;8962;52.538;13.266;2023-11-19T07:09:10;5.60;99.90
17687;DHT22;8962;52.538;13.266;2023-11-19T07:11:37;5.60;99.90
17687;DHT22;8962;52.538;13.266;2023-11-19T07:14:05;5.70;99.90
17687;DHT22;8962;52.538;13.266;2023-11-19T07:16:32;5.70;99.90
17687;DHT22;8962;52.538;13.266;2023-11-19T07:19:01;5.70;99.90
17687;DHT22;8962;52.538;13.266;2023-11-19T07:21:28;5.70;99.90
17687;DHT22;8962;52.538;13.266;2023-11-19T07:23:56;5.80;99.90
17687;DHT22;8962;52.538;13.266;2023-11-19T07:26:23;5.80;99.90
17687;DHT22;8962;52.538;13.266;2023-11-19T07:28:50;5.70;99.90
17687;DHT22;8962;52.538;13.266;2023-11-19T07:31:18;5.80;99.90
17687;DHT22;8962;52.538;13.266;2023-11-19T07:33:45;5.80;99.90
17687;DHT22;8962;52.538;13.266;2023-11-19T07:36:14;5.80;99.90
17687;DHT22;8962;52.538;13.266;2023-11-19T07:38:42;5.80;99.90
17687;DHT22;8962;52.538;13.266;2023-11-19T07:41:09;5.90;99.90
17687;DHT22;8962;52.538;13.266;2023-11-19T07:43:39;5.90;99.90
17687;DHT22;8962;52.538;13.266;2023-11-19T07:46:11;6.00;99.90
17687;DHT22;8962;52.538;13.266;2023-11-19T07:48:40;6.10;99.90
17687;DHT22;8962;52.538;13.266;2023-11-19T07:51:08;6.10;99.90
17687;DHT22;8962;52.538;13.266;2023-11-19T07:53:36;6.10;99.90
17687;DHT22;8962;52.538;13.266;2023-11-19T07:56:04;6.10;99.90
17687;DHT22;8962;52.538;13.266;2023-11-19T07:58:32;6.10;99.90
17687;DHT22;8962;52.538;13.266;2023-11-19T08:00:59;6.20;99.90
17687;DHT22;8962;52.538;13.266;2023-11-19T08:03:27;6.20;99.90
17687;DHT22;8962;52.538;13.266;2023-11-19T08:05:55;6.20;99.90
17687;DHT22;8962;52.538;13.266;2023-11-19T08:08:23;6.30;99.90
17687;DHT22;8962;52.538;13.266;2023-11-19T08:10:51;6.30;99.90
17687;DHT22;8962;52.538;13.266;2023-11-19T08:13:19;6.50;99.90
17687;DHT22;8962;52.538;13.266;2023-11-19T08:15:46;6.50;99.90
17687;DHT22;8962;52.538;13.266;2023-11-19T08:18:13;6.60;99.90
17687;DHT22;8962;52.538;13.266;2023-11-19T08:20:40;6.60;99.90
17687;DHT22;8962;52.538;13.266;2023-11-19T08:23:09;6.60;99.90
17687;DHT22;8962;52.538;13.266;2023-11-19T08:25:37;6.80;99.90
17687;DHT22;8962;52.538;13.266;2023-11-19T08:28:05;6.90;99.90
17687;DHT22;8962;52.538;13.266;2023-11-19T08:30:33;7.00;99.90
17687;DHT22;8962;52.538;13.266;2023-11-19T08:33:01;7.00;99.90
17687;DHT22;8962;52.538;13.266;2023-11-19T08:35:28;7.00;99.90
17687;DHT22;8962;52.538;13.266;2023-11-19T08:37:55;7.10;99.90
17687;DHT22;8962;52.538;13.266;2023-11-19T08:40:23;7.10;99.90
17687;DHT22;8962;52.538;13.266;2023-11-19T08:42:50;7.30;99.90
17687;DHT22;8962;52.538;13.266;2023-11-19T08:45:21;7.20;99.90
17687;DHT22;8962;52.538;13.266;2023-11-19T08:47:48;7.40;99.90
17687;DHT22;8962;52.538;13.266;2023-11-19T08:50:15;7.60;99.90
17687;DHT22;8962;52.538;13.266;2023-11-19T08:52:42;7.50;99.90
17687;DHT22;8962;52.538;13.266;2023-11-19T08:55:10;7.50;99.90
17687;DHT22;8962;52.538;13.266;2023-11-19T08:57:39;7.50;99.90
17687;DHT22;8962;52.538;13.266;2023-11-19T09:00:07;7.50;99.90
17687;DHT22;8962;52.538;13.266;2023-11-19T09:02:36;7.60;99.90
17687;DHT22;8962;52.538;13.266;2023-11-19T09:05:04;7.60;99.90
17687;DHT22;8962;52.538;13.266;2023-11-19T09:07:33;7.80;99.90
17687;DHT22;8962;52.538;13.266;2023-11-19T09:10:01;7.80;99.90
17687;DHT22;8962;52.538;13.266;2023-11-19T09:12:28;7.90;99.90
17687;DHT22;8962;52.538;13.266;2023-11-19T09:14:55;8.10;99.90
17687;DHT22;8962;52.538;13.266;2023-11-19T09:17:22;8.20;99.90
17687;DHT22;8962;52.538;13.266;2023-11-19T09:19:51;8.30;99.90
17687;DHT22;8962;52.538;13.266;2023-11-19T09:22:18;8.30;99.90
17687;DHT22;8962;52.538;13.266;2023-11-19T09:24:45;8.40;99.90
17687;DHT22;8962;52.538;13.266;2023-11-19T09:27:13;8.50;99.90
17687;DHT22;8962;52.538;13.266;2023-11-19T09:29:40;8.60;99.90
17687;DHT22;8962;52.538;13.266;2023-11-19T09:32:08;8.80;99.90
17687;DHT22;8962;52.538;13.266;2023-11-19T09:34:35;8.80;99.90
17687;DHT22;8962;52.538;13.266;2023-11-19T09:37:04;8.80;99.90
17687;DHT22;8962;52.538;13.266;2023-11-19T09:39:31;8.80;99.90
17687;DHT22;8962;52.538;13.266;2023-11-19T09:41:58;8.80;99.90
17687;DHT22;8962;52.538;13.266;2023-11-19T09:44:26;8.90;99.90
17687;DHT22;8962;52.538;13.266;2023-11-19T09:46:53;9.00;99.90
17687;DHT22;8962;52.538;13.266;2023-11-19T09:49:21;9.20;99.90
17687;DHT22;8962;52.538;13.266;2023-11-19T09:51:51;9.30;99.90
17687;DHT22;8962;52.538;13.266;2023-11-19T09:54:20;9.30;99.90
17687;DHT22;8962;52.538;13.266;2023-11-19T09:56:48;9.40;99.90
17687;DHT22;8962;52.538;13.266;2023-11-19T09:59:16;9.50;99.90
17687;DHT22;8962;52.538;13.266;2023-11-19T10:01:43;9.70;99.90
17687;DHT22;8962;52.538;13.266;2023-11-19T10:04:15;9.80;99.90
17687;DHT22;8962;52.538;13.266;2023-11-19T10:06:42;9.80;99.90
17687;DHT22;8962;52.538;13.266;2023-11-19T10:09:11;9.80;99.90
17687;DHT22;8962;52.538;13.266;2023-11-19T10:11:39;9.80;99.90
17687;DHT22;8962;52.538;13.266;2023-11-19T10:14:07;9.70;99.90
17687;DHT22;8962;52.538;13.266;2023-11-19T10:16:35;9.80;99.90
17687;DHT22;8962;52.538;13.266;2023-11-19T10:19:02;9.80;99.90
17687;DHT22;8962;52.538;13.266;2023-11-19T10:21:29;9.80;99.90
17687;DHT22;8962;52.538;13.266;2023-11-19T10:23:59;9.90;99.90
17687;DHT22;8962;52.538;13.266;2023-11-19T10:26:27;10.00;99.90
17687;DHT22;8962;52.538;13.266;2023-11-19T10:28:56;10.10;99.90
17687;DHT22;8962;52.538;13.266;2023-11-19T10:31:24;10.30;99.90
17687;DHT22;8962;52.538;13.266;2023-11-19T10:33:52;10.50;99.90
17687;DHT22;8962;52.538;13.266;2023-11-19T10:36:19;10.80;99.90
17687;DHT22;8962;52.538;13.266;2023-11-19T10:38:52;11.00;99.90
17687;DHT22;8962;52.538;13.266;2023-11-19T10:41:29;11.10;99.90
17687;DHT22;8962;52.538;13.266;2023-11-19T10:43:58;11.20;99.90
17687;DHT22;8962;52.538;13.266;2023-11-19T10:46:37;11.30;99.90
17687;DHT22;8962;52.538;13.266;2023-11-19T10:49:04;11.40;99.90
17687;DHT22;8962;52.538;13.266;2023-11-19T10:51:32;11.50;99.90
17687;DHT22;8962;52.538;13.266;2023-11-19T10:54:02;11.60;99.90
17687;DHT22;8962;52.538;13.266;2023-11-19T10:56:32;11.60;99.90
17687;DHT22;8962;52.538;13.266;2023-11-19T10:59:01;11.60;99.90
17687;DHT22;8962;52.538;13.266;2023-11-19T11:01:34;11.60;99.90
17687;DHT22;8962;52.538;13.266;2023-11-19T11:04:11;11.60;99.90
17687;DHT22;8962;52.538;13.266;2023-11-19T11:06:41;11.60;99.90
17687;DHT22;8962;52.538;13.266;2023-11-19T11:09:09;11.60;99.90
17687;DHT22;8962;52.538;13.266;2023-11-19T11:11:39;11.70;99.90
17687;DHT22;8962;52.538;13.266;2023-11-19T11:14:13;11.80;99.90
17687;DHT22;8962;52.538;13.266;2023-11-19T11:16:42;11.90;99.90
17687;DHT22;8962;52.538;13.266;2023-11-19T11:19:09;11.90;99.90
17687;DHT22;8962;52.538;13.266;2023-11-19T11:21:39;12.00;99.90
17687;DHT22;8962;52.538;13.266;2023-11-19T11:24:21;12.10;99.90
17687;DHT22;8962;52.538;13.266;2023-11-19T11:27:14;12.20;99.90
17687;DHT22;8962;52.538;13.266;2023-11-19T11:29:55;12.10;99.90
17687;DHT22;8962;52.538;13.266;2023-11-19T11:32:32;12.30;99.90
17687;DHT22;8962;52.538;13.266;2023-11-19T11:35:24;12.30;99.90
17687;DHT22;8962;52.538;13.266;2023-11-19T11:38:00;12.50;99.90
17687;DHT22;8962;52.538;13.266;2023-11-19T11:40:28;12.80;99.90
17687;DHT22;8962;52.538;13.266;2023-11-19T11:42:56;13.00;99.90
17687;DHT22;8962;52.538;13.266;2023-11-19T11:45:37;13.20;99.90
17687;DHT22;8962;52.538;13.266;2023-11-19T11:48:10;13.30;99.90
17687;DHT22;8962;52.538;13.266;2023-11-19T11:50:52;13.40;99.90
17687;DHT22;8962;52.538;13.266;2023-11-19T11:53:21;13.30;99.90
17687;DHT22;8962;52.538;13.266;2023-11-19T11:55:57;13.30;99.90
17687;DHT22;8962;52.538;13.266;2023-11-19T11:58:27;13.20;99.90
17687;DHT22;8962;52.538;13.266;2023-11-19T12:01:01;13.10;99.90
17687;DHT22;8962;52.538;13.266;2023-11-19T12:03:29;13.00;99.90
17687;DHT22;8962;52.538;13.266;2023-11-19T12:05:57;13.00;99.90
17687;DHT22;8962;52.538;13.266;2023-11-19T12:08:27;13.00;99.90
17687;DHT22;8962;52.538;13.266;2023-11-19T12:10:55;13.00;99.90
17687;DHT22;8962;52.538;13.266;2023-11-19T12:13:29;12.90;99.90
17687;DHT22;8962;52.538;13.266;2023-11-19T12:16:12;13.00;99.90
17687;DHT22;8962;52.538;13.266;2023-11-19T12:18:40;13.00;99.90
17687;DHT22;8962;52.538;13.266;2023-11-19T12:21:08;12.90;99.90
17687;DHT22;8962;52.538;13.266;2023-11-19T12:23:45;12.90;99.90
17687;DHT22;8962;52.538;13.266;2023-11-19T12:26:36;12.80;99.90
17687;DHT22;8962;52.538;13.266;2023-11-19T12:29:04;12.70;99.90
17687;DHT22;8962;52.538;13.266;2023-11-19T12:31:35;12.60;99.90
17687;DHT22;8962;52.538;13.266;2023-11-19T12:34:06;12.60;99.90
17687;DHT22;8962;52.538;13.266;2023-11-19T12:36:38;12.50;99.90
17687;DHT22;8962;52.538;13.266;2023-11-19T12:39:06;12.40;99.90
17687;DHT22;8962;52.538;13.266;2023-11-19T12:41:50;12.30;99.90
17687;DHT22;8962;52.538;13.266;2023-11-19T12:44:18;12.30;99.90
17687;DHT22;8962;52.538;13.266;2023-11-19T12:46:46;12.30;99.90
17687;DHT22;8962;52.538;13.266;2023-11-19T12:49:25;12.40;99.90
17687;DHT22;8962;52.538;13.266;2023-11-19T12:51:53;12.50;99.90
17687;DHT22;8962;52.538;13.266;2023-11-19T12:54:20;12.50;99.90
17687;DHT22;8962;52.538;13.266;2023-11-19T12:56:58;12.50;99.90
17687;DHT22;8962;52.538;13.266;2023-11-19T12:59:26;12.40;99.90
17687;DHT22;8962;52.538;13.266;2023-11-19T13:01:55;12.30;99.90
17687;DHT22;8962;52.538;13.266;2023-11-19T13:04:23;12.20;99.90
17687;DHT22;8962;52.538;13.266;2023-11-19T13:06:51;12.20;99.90
17687;DHT22;8962;52.538;13.266;2023-11-19T13:09:22;12.30;99.90
17687;DHT22;8962;52.538;13.266;2023-11-19T13:11:50;12.30;99.90
17687;DHT22;8962;52.538;13.266;2023-11-19T13:14:18;12.30;99.90
17687;DHT22;8962;52.538;13.266;2023-11-19T13:16:45;12.30;99.90
17687;DHT22;8962;52.538;13.266;2023-11-19T13:19:15;12.20;99.90
17687;DHT22;8962;52.538;13.266;2023-11-19T13:21:44;12.20;99.90
17687;DHT22;8962;52.538;13.266;2023-11-19T13:24:13;12.10;99.90
17687;DHT22;8962;52.538;13.266;2023-11-19T13:26:40;12.00;99.90
17687;DHT22;8962;52.538;13.266;2023-11-19T13:29:07;12.00;99.90
17687;DHT22;8962;52.538;13.266;2023-11-19T13:31:36;12.00;99.90
17687;DHT22;8962;52.538;13.266;2023-11-19T13:34:04;12.10;99.90
17687;DHT22;8962;52.538;13.266;2023-11-19T13:36:34;12.20;99.90
17687;DHT22;8962;52.538;13.266;2023-11-19T13:39:01;12.20;99.90
17687;DHT22;8962;52.538;13.266;2023-11-19T13:41:28;12.20;99.90
17687;DHT22;8962;52.538;13.266;2023-11-19T13:43:55;12.30;99.90
17687;DHT22;8962;52.538;13.266;2023-11-19T13:46:22;12.30;99.90
17687;DHT22;8962;52.538;13.266;2023-11-19T13:48:50;12.30;99.90
17687;DHT22;8962;52.538;13.266;2023-11-19T13:51:17;12.30;99.90
17687;DHT22;8962;52.538;13.266;2023-11-19T13:53:46;12.30;99.90
17687;DHT22;8962;52.538;13.266;2023-11-19T13:56:13;12.20;99.90
17687;DHT22;8962;52.538;13.266;2023-11-19T13:58:40;12.20;99.90
17687;DHT22;8962;52.538;13.266;2023-11-19T14:01:07;12.20;99.90
17687;DHT22;8962;52.538;13.266;2023-11-19T14:03:34;12.10;99.90
17687;DHT22;8962;52.538;13.266;2023-11-19T14:06:02;12.20;99.90
17687;DHT22;8962;52.538;13.266;2023-11-19T14:08:29;12.30;99.90
17687;DHT22;8962;52.538;13.266;2023-11-19T14:10:58;12.30;99.90
17687;DHT22;8962;52.538;13.266;2023-11-19T14:13:26;12.30;99.90
17687;DHT22;8962;52.538;13.266;2023-11-19T14:15:53;12.30;99.90
17687;DHT22;8962;52.538;13.266;2023-11-19T14:18:20;12.20;99.90
17687;DHT22;8962;52.538;13.266;2023-11-19T14:20:47;12.20;99.90
17687;DHT22;8962;52.538;13.266;2023-11-19T14:23:15;12.10;99.90
17687;DHT22;8962;52.538;13.266;2023-11-19T14:25:43;12.10;99.90
17687;DHT22;8962;52.538;13.266;2023-11-19T14:28:11;12.10;99.90
17687;DHT22;8962;52.538;13.266;2023-11-19T14:30:38;12.10;99.90
17687;DHT22;8962;52.538;13.266;2023-11-19T14:33:07;12.00;99.90
17687;DHT22;8962;52.538;13.266;2023-11-19T14:35:34;12.00;99.90
17687;DHT22;8962;52.538;13.266;2023-11-19T14:38:01;11.90;99.90
17687;DHT22;8962;52.538;13.266;2023-11-19T14:40:35;11.90;99.90
17687;DHT22;8962;52.538;13.266;2023-11-19T14:43:02;11.90;99.90
17687;DHT22;8962;52.538;13.266;2023-11-19T14:45:31;11.90;99.90
17687;DHT22;8962;52.538;13.266;2023-11-19T14:47:58;11.90;99.90
17687;DHT22;8962;52.538;13.266;2023-11-19T14:50:26;11.80;99.90
17687;DHT22;8962;52.538;13.266;2023-11-19T14:52:53;11.80;99.90
17687;DHT22;8962;52.538;13.266;2023-11-19T14:55:20;11.80;99.90
17687;DHT22;8962;52.538;13.266;2023-11-19T14:57:48;11.70;99.90
17687;DHT22;8962;52.538;13.266;2023-11-19T15:00:16;11.80;99.90
17687;DHT22;8962;52.538;13.266;2023-11-19T15:02:45;11.80;99.90
17687;DHT22;8962;52.538;13.266;2023-11-19T15:05:12;11.80;99.90
17687;DHT22;8962;52.538;13.266;2023-11-19T15:07:39;11.80;99.90
17687;DHT22;8962;52.538;13.266;2023-11-19T15:10:07;11.80;99.90
17687;DHT22;8962;52.538;13.266;2023-11-19T15:12:37;11.80;99.90
17687;DHT22;8962;52.538;13.266;2023-11-19T15:15:07;11.80;99.90
17687;DHT22;8962;52.538;13.266;2023-11-19T15:17:35;11.70;99.90
17687;DHT22;8962;52.538;13.266;2023-11-19T15:20:05;11.70;99.90
17687;DHT22;8962;52.538;13.266;2023-11-19T15:22:32;11.70;99.90
17687;DHT22;8962;52.538;13.266;2023-11-19T15:25:00;11.70;99.90
17687;DHT22;8962;52.538;13.266;2023-11-19T15:27:27;11.70;99.90
17687;DHT22;8962;52.538;13.266;2023-11-19T15:29:54;11.70;99.90
17687;DHT22;8962;52.538;13.266;2023-11-19T15:32:21;11.70;99.90
17687;DHT22;8962;52.538;13.266;2023-11-19T15:34:48;11.70;99.90
17687;DHT22;8962;52.538;13.266;2023-11-19T15:37:17;11.60;99.90
17687;DHT22;8962;52.538;13.266;2023-11-19T15:39:44;11.60;99.90
17687;DHT22;8962;52.538;13.266;2023-11-19T15:42:12;11.60;99.90
17687;DHT22;8962;52.538;13.266;2023-11-19T15:44:39;11.60;99.90
17687;DHT22;8962;52.538;13.266;2023-11-19T15:47:06;11.40;99.90
17687;DHT22;8962;52.538;13.266;2023-11-19T15:49:34;11.50;99.90
17687;DHT22;8962;52.538;13.266;2023-11-19T15:52:02;11.40;99.90